PWSweather.com
Personal Weather Stations
Station Observations
KCANORTH19
Rocking L Ranch, North Fork, CA

Rocking L RanchNorth Fork, CA

Lat: 37.248, Lon: -119.56

Elevation: 3093

Station Type: Davis Vantage Pro 2

Latest ConditionsUpdated 6:05:06 AM PST Sunday, Jan 22, 2017
Currently Today's Max Today's Min Today's Average
Temperature 36.5°F2.5°C 37.3°F2.9°C 35.5°F1.9°C 36.5°F2.5°C
Dew Point 35.5°F1.9°C 36.3°F2.4°C 34.4°F1.3°C 35.5°F1.9°C
Winds Calm Calm 7.0 mph SE11.3 kmh SE - 0.7 mph 1.1 kmh
Wind Gusts -- 10.0 mph16.1 kmh - -
Humidity 96% 96% 95% 96%
Pressure 29.91 in1012.9 mb 30.04 in1017.3 mb 29.90 in1012.5 mb -
Hour Temp Dew Point Humidity Winds Wind Gusts Pressure Precip Precip Rate Daily Precip Total
06:05 AM 36.5°F2.5°C 35.5°F1.9°C 96% Calm Calm -- 29.91 in1012.9 mb 0.00 in0.0 mm 0.00 in0.0 mm 0.29 in7.4 mm
06:00 AM 36.5°F2.5°C 35.5°F1.9°C 96% Calm Calm 4.0 mph6.4 kmh 29.91 in1012.9 mb 0.00 in0.0 mm 0.00 in0.0 mm 0.29 in7.4 mm
05:55 AM 36.6°F2.6°C 35.6°F2.0°C 96% Calm Calm 4.0 mph6.4 kmh 29.91 in1012.9 mb 0.00 in0.0 mm 0.00 in0.0 mm 0.29 in7.4 mm
05:50 AM 36.7°F2.6°C 35.7°F2.1°C 96% Calm Calm 4.0 mph6.4 kmh 29.91 in1012.9 mb 0.00 in0.0 mm 0.00 in0.0 mm 0.29 in7.4 mm
05:45 AM 36.7°F2.6°C 35.7°F2.1°C 96% Calm Calm 4.0 mph6.4 kmh 29.91 in1012.9 mb 0.00 in0.0 mm 0.00 in0.0 mm 0.29 in7.4 mm
05:40 AM 36.7°F2.6°C 35.7°F2.1°C 96% 2.0 mph ESE3.2 kmh ESE 4.0 mph6.4 kmh 29.91 in1012.9 mb 0.00 in0.0 mm 0.00 in0.0 mm 0.29 in7.4 mm
05:35 AM 36.6°F2.6°C 35.6°F2.0°C 96% Calm Calm 4.0 mph6.4 kmh 29.91 in1012.9 mb 0.00 in0.0 mm 0.00 in0.0 mm 0.29 in7.4 mm
05:30 AM 36.5°F2.5°C 35.5°F1.9°C 96% 1.0 mph E1.6 kmh E 6.0 mph9.7 kmh 29.90 in1012.5 mb 0.01 in0.3 mm 0.00 in0.0 mm 0.29 in7.4 mm
05:25 AM 36.5°F2.5°C 35.5°F1.9°C 96% Calm Calm 4.0 mph6.4 kmh 29.90 in1012.5 mb 0.01 in0.3 mm 0.00 in0.0 mm 0.29 in7.4 mm
05:20 AM 36.6°F2.6°C 35.6°F2.0°C 96% 4.0 mph E6.4 kmh E 4.0 mph6.4 kmh 29.91 in1012.9 mb 0.01 in0.3 mm 0.00 in0.0 mm 0.29 in7.4 mm
05:15 AM 36.5°F2.5°C 35.5°F1.9°C 96% Calm Calm 4.0 mph6.4 kmh 29.91 in1012.9 mb 0.01 in0.3 mm 0.00 in0.0 mm 0.29 in7.4 mm
05:10 AM 36.6°F2.6°C 35.6°F2.0°C 96% Calm Calm 4.0 mph6.4 kmh 29.92 in1013.2 mb 0.01 in0.3 mm 0.00 in0.0 mm 0.29 in7.4 mm
05:05 AM 36.6°F2.6°C 35.6°F2.0°C 96% Calm Calm 4.0 mph6.4 kmh 29.92 in1013.2 mb 0.01 in0.3 mm 0.00 in0.0 mm 0.29 in7.4 mm
05:00 AM 36.5°F2.5°C 35.5°F1.9°C 96% Calm Calm 3.0 mph4.8 kmh 29.92 in1013.2 mb 0.06 in1.5 mm 0.00 in0.0 mm 0.29 in7.4 mm
04:55 AM 36.3°F2.4°C 35.3°F1.8°C 96% Calm Calm 3.0 mph4.8 kmh 29.92 in1013.2 mb 0.06 in1.5 mm 0.00 in0.0 mm 0.29 in7.4 mm
04:50 AM 36.1°F2.3°C 35.1°F1.7°C 96% Calm Calm 3.0 mph4.8 kmh 29.92 in1013.2 mb 0.06 in1.5 mm 0.00 in0.0 mm 0.29 in7.4 mm
04:45 AM 36.0°F2.2°C 35.0°F1.7°C 96% Calm Calm 3.0 mph4.8 kmh 29.91 in1012.9 mb 0.06 in1.5 mm 0.00 in0.0 mm 0.29 in7.4 mm
04:40 AM 35.9°F2.2°C 34.9°F1.6°C 96% Calm Calm 3.0 mph4.8 kmh 29.92 in1013.2 mb 0.06 in1.5 mm 0.00 in0.0 mm 0.29 in7.4 mm
04:35 AM 35.8°F2.1°C 34.8°F1.6°C 96% Calm Calm 3.0 mph4.8 kmh 29.93 in1013.5 mb 0.06 in1.5 mm 0.00 in0.0 mm 0.29 in7.4 mm
04:30 AM 35.7°F2.1°C 34.7°F1.5°C 96% Calm Calm 3.0 mph4.8 kmh 29.94 in1013.9 mb 0.11 in2.8 mm 0.00 in0.0 mm 0.29 in7.4 mm
04:25 AM 35.6°F2.0°C 34.6°F1.4°C 96% Calm Calm 3.0 mph4.8 kmh 29.94 in1013.9 mb 0.11 in2.8 mm 0.00 in0.0 mm 0.29 in7.4 mm
04:20 AM 35.7°F2.1°C 34.7°F1.5°C 96% Calm Calm 3.0 mph4.8 kmh 29.95 in1014.2 mb 0.11 in2.8 mm 0.00 in0.0 mm 0.29 in7.4 mm
04:15 AM 35.6°F2.0°C 34.6°F1.4°C 96% Calm Calm 3.0 mph4.8 kmh 29.95 in1014.2 mb 0.11 in2.8 mm 0.12 in3.0 mm 0.29 in7.4 mm
04:10 AM 35.7°F2.1°C 34.4°F1.3°C 95% Calm Calm 3.0 mph4.8 kmh 29.95 in1014.2 mb 0.10 in2.5 mm 0.00 in0.0 mm 0.28 in7.1 mm
04:05 AM 35.7°F2.1°C 34.4°F1.3°C 95% Calm Calm 3.0 mph4.8 kmh 29.96 in1014.6 mb 0.10 in2.5 mm 0.00 in0.0 mm 0.28 in7.1 mm
04:00 AM 35.8°F2.1°C 34.8°F1.6°C 96% Calm Calm 5.0 mph8.0 kmh 29.96 in1014.6 mb 0.16 in4.1 mm 0.01 in0.3 mm 0.28 in7.1 mm
03:55 AM 35.9°F2.2°C 34.6°F1.4°C 95% Calm Calm 5.0 mph8.0 kmh 29.96 in1014.6 mb 0.15 in3.8 mm 0.12 in3.0 mm 0.27 in6.9 mm
03:50 AM 36.0°F2.2°C 34.7°F1.5°C 95% 3.0 mph ENE4.8 kmh ENE 5.0 mph8.0 kmh 29.96 in1014.6 mb 0.14 in3.6 mm 0.00 in0.0 mm 0.26 in6.6 mm
03:45 AM 36.2°F2.3°C 35.2°F1.8°C 96% Calm Calm 1.0 mph1.6 kmh 29.98 in1015.2 mb 0.14 in3.6 mm 0.12 in3.0 mm 0.26 in6.6 mm
03:40 AM 36.3°F2.4°C 35.3°F1.8°C 96% Calm Calm 1.0 mph1.6 kmh 29.98 in1015.2 mb 0.13 in3.3 mm 0.12 in3.0 mm 0.25 in6.4 mm
03:35 AM 36.5°F2.5°C 35.5°F1.9°C 96% Calm Calm -- 29.96 in1014.6 mb 0.12 in3.0 mm 0.00 in0.0 mm 0.24 in6.1 mm
03:30 AM 36.5°F2.5°C 35.5°F1.9°C 96% Calm Calm 3.0 mph4.8 kmh 29.97 in1014.9 mb 0.15 in3.8 mm 0.12 in3.0 mm 0.24 in6.1 mm
03:25 AM 36.5°F2.5°C 35.5°F1.9°C 96% Calm Calm 3.0 mph4.8 kmh 29.97 in1014.9 mb 0.14 in3.6 mm 0.12 in3.0 mm 0.23 in5.8 mm
03:20 AM 36.5°F2.5°C 35.5°F1.9°C 96% Calm Calm 3.0 mph4.8 kmh 29.98 in1015.2 mb 0.13 in3.3 mm 0.00 in0.0 mm 0.22 in5.6 mm
03:15 AM 36.5°F2.5°C 35.5°F1.9°C 96% Calm Calm 3.0 mph4.8 kmh 29.98 in1015.2 mb 0.13 in3.3 mm 0.12 in3.0 mm 0.22 in5.6 mm
03:10 AM 36.5°F2.5°C 35.5°F1.9°C 96% Calm Calm 3.0 mph4.8 kmh 29.98 in1015.2 mb 0.12 in3.0 mm 0.12 in3.0 mm 0.21 in5.3 mm
03:05 AM 36.6°F2.6°C 35.6°F2.0°C 96% Calm Calm 1.0 mph1.6 kmh 29.98 in1015.2 mb 0.11 in2.8 mm 0.00 in0.0 mm 0.20 in5.1 mm
03:00 AM 36.6°F2.6°C 35.3°F1.8°C 95% Calm Calm 6.0 mph9.7 kmh 29.99 in1015.6 mb 0.14 in3.6 mm 0.01 in0.3 mm 0.20 in5.1 mm
02:55 AM 36.6°F2.6°C 35.3°F1.8°C 95% Calm Calm 6.0 mph9.7 kmh 29.99 in1015.6 mb 0.13 in3.3 mm 0.12 in3.0 mm 0.19 in4.8 mm
02:50 AM 36.6°F2.6°C 35.3°F1.8°C 95% 1.0 mph SSE1.6 kmh SSE 6.0 mph9.7 kmh 29.99 in1015.6 mb 0.12 in3.0 mm 0.00 in0.0 mm 0.18 in4.6 mm
02:45 AM 36.6°F2.6°C 35.3°F1.8°C 95% Calm Calm 4.0 mph6.4 kmh 29.99 in1015.6 mb 0.12 in3.0 mm 0.24 in6.1 mm 0.18 in4.6 mm
02:40 AM 36.7°F2.6°C 35.4°F1.9°C 95% Calm Calm 4.0 mph6.4 kmh 29.99 in1015.6 mb 0.10 in2.5 mm 0.12 in3.0 mm 0.16 in4.1 mm
02:35 AM 36.8°F2.7°C 35.5°F1.9°C 95% Calm Calm 2.0 mph3.2 kmh 30.00 in1015.9 mb 0.09 in2.3 mm 0.00 in0.0 mm 0.15 in3.8 mm
02:30 AM 36.8°F2.7°C 35.8°F2.1°C 96% 1.0 mph ESE1.6 kmh ESE 5.0 mph8.0 kmh 29.99 in1015.6 mb 0.12 in3.0 mm 0.12 in3.0 mm 0.15 in3.8 mm
02:25 AM 36.8°F2.7°C 35.8°F2.1°C 96% Calm Calm 5.0 mph8.0 kmh 30.00 in1015.9 mb 0.11 in2.8 mm 0.12 in3.0 mm 0.14 in3.6 mm
02:20 AM 36.9°F2.7°C 35.9°F2.2°C 96% Calm Calm 5.0 mph8.0 kmh 29.99 in1015.6 mb 0.10 in2.5 mm 0.12 in3.0 mm 0.13 in3.3 mm
02:15 AM 36.9°F2.7°C 35.9°F2.2°C 96% 3.0 mph S4.8 kmh S 5.0 mph8.0 kmh 29.99 in1015.6 mb 0.09 in2.3 mm 0.12 in3.0 mm 0.12 in3.0 mm
02:10 AM 37.0°F2.8°C 36.0°F2.2°C 96% Calm Calm -- 29.98 in1015.2 mb 0.08 in2.0 mm 0.00 in0.0 mm 0.11 in2.8 mm
02:05 AM 37.0°F2.8°C 36.0°F2.2°C 96% Calm Calm -- 29.97 in1014.9 mb 0.08 in2.0 mm 0.00 in0.0 mm 0.11 in2.8 mm
02:00 AM 37.1°F2.8°C 36.1°F2.3°C 96% Calm Calm 6.0 mph9.7 kmh 29.98 in1015.2 mb 0.10 in2.5 mm 0.01 in0.3 mm 0.11 in2.8 mm
01:55 AM 37.2°F2.9°C 35.9°F2.2°C 95% Calm Calm 6.0 mph9.7 kmh 29.98 in1015.2 mb 0.09 in2.3 mm 0.00 in0.0 mm 0.10 in2.5 mm
01:50 AM 37.3°F2.9°C 36.0°F2.2°C 95% Calm Calm 6.0 mph9.7 kmh 29.98 in1015.2 mb 0.09 in2.3 mm 0.12 in3.0 mm 0.10 in2.5 mm
01:45 AM 37.3°F2.9°C 36.3°F2.4°C 96% 5.0 mph S8.0 kmh S 6.0 mph9.7 kmh 29.98 in1015.2 mb 0.08 in2.0 mm 0.00 in0.0 mm 0.09 in2.3 mm
01:40 AM 37.3°F2.9°C 36.3°F2.4°C 96% Calm Calm 5.0 mph8.0 kmh 29.99 in1015.6 mb 0.08 in2.0 mm 0.12 in3.0 mm 0.09 in2.3 mm
01:35 AM 37.3°F2.9°C 36.3°F2.4°C 96% 2.0 mph E3.2 kmh E 5.0 mph8.0 kmh 30.00 in1015.9 mb 0.07 in1.8 mm 0.00 in0.0 mm 0.08 in2.0 mm
01:30 AM 37.3°F2.9°C 36.3°F2.4°C 96% 2.0 mph E3.2 kmh E 8.0 mph12.9 kmh 30.01 in1016.3 mb 0.07 in1.8 mm 0.12 in3.0 mm 0.08 in2.0 mm
01:25 AM 37.3°F2.9°C 36.3°F2.4°C 96% Calm Calm 8.0 mph12.9 kmh 30.01 in1016.3 mb 0.06 in1.5 mm 0.12 in3.0 mm 0.07 in1.8 mm
01:20 AM 37.3°F2.9°C 36.3°F2.4°C 96% 3.0 mph SSE4.8 kmh SSE 8.0 mph12.9 kmh 30.01 in1016.3 mb 0.05 in1.3 mm 0.12 in3.0 mm 0.06 in1.5 mm
01:15 AM 37.3°F2.9°C 36.3°F2.4°C 96% 3.0 mph S4.8 kmh S 5.0 mph8.0 kmh 30.02 in1016.6 mb 0.04 in1.0 mm 0.12 in3.0 mm 0.05 in1.3 mm
01:10 AM 37.3°F2.9°C 36.3°F2.4°C 96% Calm Calm 4.0 mph6.4 kmh 30.02 in1016.6 mb 0.03 in0.8 mm 0.00 in0.0 mm 0.04 in1.0 mm
01:05 AM 37.3°F2.9°C 36.3°F2.4°C 96% 2.0 mph S3.2 kmh S 4.0 mph6.4 kmh 30.01 in1016.3 mb 0.03 in0.8 mm 0.00 in0.0 mm 0.04 in1.0 mm
01:00 AM 37.3°F2.9°C 36.3°F2.4°C 96% 2.0 mph SSE3.2 kmh SSE 10.0 mph16.1 kmh 30.00 in1015.9 mb 0.03 in0.8 mm 0.01 in0.3 mm 0.04 in1.0 mm
12:55 AM 37.1°F2.8°C 36.1°F2.3°C 96% 1.0 mph ESE1.6 kmh ESE 9.0 mph14.5 kmh 30.00 in1015.9 mb 0.02 in0.5 mm 0.00 in0.0 mm 0.03 in0.8 mm
12:50 AM 36.9°F2.7°C 35.9°F2.2°C 96% 3.0 mph NE4.8 kmh NE 9.0 mph14.5 kmh 29.99 in1015.6 mb 0.02 in0.5 mm 0.12 in3.0 mm 0.03 in0.8 mm
12:45 AM 36.8°F2.7°C 35.8°F2.1°C 96% Calm Calm 9.0 mph14.5 kmh 30.00 in1015.9 mb 0.01 in0.3 mm 0.00 in0.0 mm 0.02 in0.5 mm
12:40 AM 36.4°F2.4°C 35.4°F1.9°C 96% 7.0 mph SE11.3 kmh SE 7.0 mph11.3 kmh 30.01 in1016.3 mb 0.01 in0.3 mm 0.12 in3.0 mm 0.02 in0.5 mm
12:35 AM 36.1°F2.3°C 35.1°F1.7°C 96% 2.0 mph ESE3.2 kmh ESE 6.0 mph9.7 kmh 30.02 in1016.6 mb 0.00 in0.0 mm 0.00 in0.0 mm 0.01 in0.3 mm
12:30 AM 36.1°F2.3°C 35.1°F1.7°C 96% Calm Calm 6.0 mph9.7 kmh 30.04 in1017.3 mb 0.01 in0.3 mm 0.00 in0.0 mm 0.01 in0.3 mm
12:25 AM 36.1°F2.3°C 35.1°F1.7°C 96% Calm Calm 6.0 mph9.7 kmh 30.04 in1017.3 mb 0.01 in0.3 mm 0.00 in0.0 mm 0.01 in0.3 mm
12:20 AM 36.2°F2.3°C 35.2°F1.8°C 96% Calm Calm 6.0 mph9.7 kmh 30.04 in1017.3 mb 0.01 in0.3 mm 0.00 in0.0 mm 0.01 in0.3 mm
12:15 AM 36.1°F2.3°C 35.1°F1.7°C 96% Calm Calm 6.0 mph9.7 kmh 30.04 in1017.3 mb 0.01 in0.3 mm 0.00 in0.0 mm 0.01 in0.3 mm
12:10 AM 35.9°F2.2°C 34.9°F1.6°C 96% 1.0 mph S1.6 kmh S 6.0 mph9.7 kmh 30.03 in1016.9 mb 0.01 in0.3 mm 0.00 in0.0 mm 0.01 in0.3 mm
12:05 AM 35.6°F2.0°C 34.6°F1.4°C 96% 4.0 mph SSW6.4 kmh SSW 5.0 mph8.0 kmh 30.02 in1016.6 mb 0.01 in0.3 mm 0.00 in0.0 mm 0.01 in0.3 mm
12:00 AM 35.5°F1.9°C 34.5°F1.4°C 96% 1.0 mph S1.6 kmh S 4.0 mph6.4 kmh 30.02 in1016.6 mb 0.01 in0.3 mm 0.00 in0.0 mm 0.01 in0.3 mm